createdAt,value
2023-01-05T00:02:52.267Z,6.38
2023-01-05T00:07:57.569Z,5.68
2023-01-05T00:13:01.193Z,4.60
2023-01-05T00:18:04.921Z,4.53
2023-01-05T00:23:10.508Z,5.60
2023-01-05T00:28:14.178Z,4.97
2023-01-05T00:33:18.694Z,9.68
2023-01-05T00:38:23.998Z,14.27
2023-01-05T00:43:27.670Z,10.27
2023-01-05T00:48:31.326Z,15.05
2023-01-05T00:53:36.690Z,9.77
2023-01-05T00:58:40.325Z,6.43
2023-01-05T01:03:44.031Z,7.53
2023-01-05T01:08:49.421Z,12.63
2023-01-05T01:13:53.062Z,10.97
2023-01-05T01:18:59.662Z,14.00
2023-01-05T01:24:08.673Z,7.55
2023-01-05T01:29:12.563Z,10.27
2023-01-05T01:34:16.351Z,7.40
2023-01-05T01:39:21.708Z,3.65
2023-01-05T01:44:50.641Z,2.87
2023-01-05T01:49:56.499Z,3.63
2023-01-05T01:55:04.394Z,2.40
2023-01-05T02:00:10.770Z,1.60
2023-01-05T02:05:17.140Z,0.80
2023-01-05T02:10:45.658Z,1.48
2023-01-05T02:15:56.213Z,4.70
2023-01-05T02:21:19.687Z,3.97
2023-01-05T02:27:12.984Z,11.80
2023-01-05T02:32:23.471Z,12.27
2023-01-05T02:37:33.609Z,12.80
2023-01-05T02:42:39.859Z,13.90
2023-01-05T02:47:46.419Z,16.00
2023-01-05T02:52:56.613Z,10.50
2023-01-05T02:58:04.693Z,14.82
2023-01-05T03:03:16.306Z,11.73
2023-01-05T03:08:25.085Z,7.07
2023-01-05T03:13:35.065Z,10.50
2023-01-05T03:18:59.679Z,5.25
2023-01-05T03:24:03.381Z,6.18
2023-01-05T03:29:07.093Z,4.80
2023-01-05T03:34:18.227Z,4.53
2023-01-05T03:39:26.961Z,7.47
2023-01-05T03:44:30.594Z,6.40
2023-01-05T03:49:36.301Z,8.38
2023-01-05T03:54:39.959Z,7.03
2023-01-05T03:59:43.632Z,6.15
2023-01-05T04:04:48.994Z,7.25
2023-01-05T04:09:52.721Z,7.67
2023-01-05T04:47:38.769Z,13.32
2023-01-05T04:52:42.439Z,13.77
2023-01-05T04:57:46.256Z,11.15
2023-01-05T05:02:51.751Z,20.00
2023-01-05T05:07:55.435Z,14.18
2023-01-05T05:12:59.064Z,20.10
2023-01-05T05:18:08.927Z,16.38
2023-01-05T05:23:13.249Z,18.65
2023-01-05T05:28:16.924Z,16.42
2023-01-05T05:33:25.139Z,23.08
2023-01-05T05:38:28.789Z,27.13
2023-01-05T05:43:32.488Z,17.30
2023-01-05T05:48:37.875Z,11.50
2023-01-05T05:53:42.590Z,22.53
2023-01-05T15:34:24.479Z,26.73
2023-01-05T18:19:39.605Z,11.98
2023-01-05T18:24:43.623Z,12.83
2023-01-05T18:29:47.243Z,11.15
2023-01-05T18:34:52.530Z,9.85
2023-01-05T18:39:56.172Z,8.13
2023-01-05T18:45:04.909Z,11.80
2023-01-05T18:50:20.435Z,10.88
2023-01-05T18:55:24.080Z,18.08
2023-01-05T19:00:27.819Z,9.73
2023-01-05T19:05:33.191Z,7.30
2023-01-05T19:10:37.377Z,9.33
2023-01-05T19:15:41.024Z,9.60
2023-01-05T19:20:46.346Z,7.53
2023-01-05T19:25:49.993Z,8.93
2023-01-05T19:30:53.665Z,11.48
2023-01-05T19:36:04.318Z,8.10
2023-01-05T19:41:11.110Z,6.32
2023-01-05T19:46:15.907Z,5.63
2023-01-05T19:51:22.541Z,8.55
2023-01-05T19:56:27.891Z,10.35
2023-01-05T20:01:34.673Z,9.17
2023-01-05T20:06:41.946Z,7.82
2023-01-05T20:11:47.807Z,12.02
2023-01-05T20:16:52.892Z,11.13
2023-01-05T20:22:00.191Z,9.32
2023-01-05T20:27:06.453Z,7.22
2023-01-05T20:32:12.181Z,8.70
2023-01-05T20:37:17.482Z,9.75
2023-01-05T20:42:21.828Z,13.30
2023-01-05T20:47:25.501Z,9.98
2023-01-05T20:52:31.351Z,11.07
2023-01-05T20:57:35.004Z,10.67
2023-01-05T21:02:38.737Z,17.92
2023-01-05T21:07:44.834Z,15.70
2023-01-05T21:12:48.470Z,12.15
2023-01-05T21:17:52.116Z,14.23
2023-01-05T21:22:57.511Z,17.40
2023-01-05T21:28:01.162Z,12.63
2023-01-05T21:33:04.920Z,19.30
2023-01-05T21:38:10.251Z,14.93
2023-01-05T21:43:13.937Z,14.53
2023-01-05T21:48:17.589Z,16.83
2023-01-05T21:53:22.919Z,14.65
2023-01-05T21:58:26.635Z,24.23
2023-01-05T22:03:30.755Z,16.83
2023-01-05T22:08:36.179Z,18.08
2023-01-05T22:13:40.627Z,12.83
2023-01-05T22:18:44.243Z,16.52
2023-01-05T22:23:49.584Z,14.13
2023-01-05T22:28:53.904Z,12.43
2023-01-05T22:33:58.749Z,18.00
2023-01-05T22:39:04.033Z,18.70
2023-01-05T22:44:08.237Z,15.03
2023-01-05T22:49:14.589Z,16.55
2023-01-05T22:54:19.980Z,15.57
2023-01-05T22:59:23.653Z,12.90
2023-01-05T23:04:27.359Z,18.95
2023-01-05T23:09:32.664Z,16.52
2023-01-05T23:14:36.299Z,22.83
2023-01-05T23:19:40.824Z,22.88
2023-01-05T23:24:46.265Z,18.42
2023-01-05T23:29:49.878Z,22.07
2023-01-05T23:34:53.511Z,18.40
2023-01-05T23:39:58.783Z,22.08
2023-01-05T23:45:02.432Z,28.77
2023-01-05T23:50:06.976Z,31.83
2023-01-05T23:55:14.157Z,25.48
